Twightwee, Ohio
Current Conditions -  °F | °C
As of 6:53 PM on Friday 19 Dec 2014 (Local Time) from KLUK Reporting Station
Overcast Overcast  
Wind Chill: 31°   Ceiling: 2700
Heat Index: 31°   Visibility: 10mi
Dew Point: 22°   Wind: 3mph
Humidity: 69%   Direction: 70°ENE
Pressure: 30.32"   Gusts: NA
Location:  39.23°N, 84.2394°W
Report Text: KLUK 192353Z 07003KT 10SM OVC027 M01/M06 A3032 RMK AO2 SLP273 T10061056 11006 21011 50011
Loading
Personal Weather Stations






























Interactive Weather Map New forecast layout! Learn more

10-Day Weather Forecast

Advertisements
Track Severe Weather on mobile